Time;durP1;ratioP1;P1;durP2;ratioP2;P2;SDS_P1;SDS_P2;PMS_P1;PMS_P2;Temp;Humidity;BMP_temperature;BMP_pressure;BME280_temperature;BME280_humidity;BME280_pressure;Samples;Min_cycle;Max_cycle;Signal;HPM_P1;HPM_P2
2021/11/15 00:02:10;;;;;;;14.65;11.00;;;10.50;99.90;;;;;;5051477;28;20960;-51
2021/11/15 00:04:37;;;;;;;13.00;10.13;;;10.30;99.90;;;;;;5056961;28;20707;-50
2021/11/15 00:07:02;;;;;;;15.63;11.10;;;10.10;99.90;;;;;;5062759;28;20201;-51
2021/11/15 00:09:29;;;;;;;18.20;11.70;;;10.10;99.90;;;;;;5045199;28;20202;-51
2021/11/15 00:11:55;;;;;;;13.93;10.80;;;10.40;99.90;;;;;;5049900;28;20571;-51
2021/11/15 00:14:21;;;;;;;14.67;10.80;;;10.50;99.90;;;;;;5052739;28;20244;-51
2021/11/15 00:16:47;;;;;;;13.95;10.95;;;10.10;99.90;;;;;;5053517;28;20897;-51
2021/11/15 00:19:13;;;;;;;13.27;11.40;;;10.50;99.90;;;;;;5049739;28;20194;-51
2021/11/15 00:21:39;;;;;;;19.37;10.77;;;10.50;99.90;;;;;;5041900;28;20865;-51
2021/11/15 00:24:05;;;;;;;16.03;10.87;;;10.20;99.90;;;;;;5055376;28;20535;-51
2021/11/15 00:26:30;;;;;;;18.65;10.75;;;10.50;99.90;;;;;;5049758;28;20576;-51
2021/11/15 00:28:56;;;;;;;15.13;10.77;;;10.40;99.90;;;;;;5055570;28;20709;-51
2021/11/15 00:31:22;;;;;;;12.60;9.75;;;10.30;99.90;;;;;;5052009;28;20627;-51
2021/11/15 00:33:49;;;;;;;14.80;10.95;;;10.30;99.90;;;;;;5043085;28;20240;-51
2021/11/15 00:36:14;;;;;;;15.25;10.00;;;10.40;99.90;;;;;;5049199;28;20206;-51
2021/11/15 00:38:40;;;;;;;13.75;9.45;;;10.40;99.90;;;;;;5043357;28;20209;-51
2021/11/15 00:41:06;;;;;;;13.27;9.50;;;10.20;99.90;;;;;;5060088;28;20236;-51
2021/11/15 00:43:32;;;;;;;15.90;11.07;;;10.30;99.90;;;;;;5058645;28;20447;-51
2021/11/15 00:45:58;;;;;;;14.53;10.00;;;10.10;99.90;;;;;;5064256;28;20212;-51
2021/11/15 00:48:24;;;;;;;14.00;9.90;;;10.20;99.90;;;;;;5055898;28;20436;-51
2021/11/15 00:50:50;;;;;;;13.50;9.27;;;10.10;99.90;;;;;;5061270;28;20213;-50
2021/11/15 00:53:16;;;;;;;13.63;9.13;;;10.10;99.90;;;;;;5049334;28;20202;-51
2021/11/15 00:55:41;;;;;;;14.83;10.07;;;9.90;99.90;;;;;;5053869;28;20193;-51
2021/11/15 00:58:07;;;;;;;14.50;9.03;;;10.10;99.90;;;;;;5059523;28;20189;-51
2021/11/15 01:00:35;;;;;;;13.70;9.37;;;10.30;99.90;;;;;;5049242;28;20217;-50
2021/11/15 01:03:06;;;;;;;14.60;9.82;;;10.20;99.90;;;;;;5054055;28;20248;-51
2021/11/15 01:05:32;;;;;;;14.88;10.45;;;10.30;99.90;;;;;;5054505;28;20181;-50
2021/11/15 01:07:58;;;;;;;12.88;9.75;;;10.20;99.90;;;;;;5052006;28;20189;-50
2021/11/15 01:10:24;;;;;;;12.10;8.97;;;10.30;99.90;;;;;;5045817;28;20217;-51
2021/11/15 01:12:51;;;;;;;11.35;9.30;;;10.00;99.90;;;;;;5050355;28;20185;-51
2021/11/15 01:15:20;;;;;;;12.40;8.75;;;10.00;99.90;;;;;;5064588;28;20534;-51
2021/11/15 01:17:47;;;;;;;12.38;9.60;;;10.20;99.90;;;;;;5055518;28;20251;-51
2021/11/15 01:20:14;;;;;;;12.15;9.30;;;10.10;99.90;;;;;;5054439;28;20213;-51
2021/11/15 01:22:41;;;;;;;12.75;9.10;;;9.70;99.90;;;;;;5055666;28;20270;-50
2021/11/15 01:25:08;;;;;;;12.98;9.80;;;10.10;99.90;;;;;;5052986;28;20511;-50
2021/11/15 01:27:34;;;;;;;15.95;10.00;;;9.90;99.90;;;;;;5052884;28;20186;-51
2021/11/15 01:30:00;;;;;;;13.07;9.32;;;9.90;99.90;;;;;;5065111;28;20559;-51
2021/11/15 01:32:26;;;;;;;12.93;9.23;;;10.10;99.90;;;;;;5057251;28;20200;-51
2021/11/15 01:34:51;;;;;;;13.07;9.27;;;10.20;99.90;;;;;;5062484;28;20205;-51
2021/11/15 01:37:18;;;;;;;11.17;8.33;;;10.20;99.90;;;;;;5060873;28;20177;-51
2021/11/15 01:39:44;;;;;;;11.32;7.95;;;10.10;99.90;;;;;;5054961;28;20707;-51
2021/11/15 01:42:10;;;;;;;13.15;8.55;;;9.70;99.90;;;;;;5071666;28;20196;-50
2021/11/15 01:44:36;;;;;;;12.23;8.00;;;10.20;99.90;;;;;;5068610;28;20181;-51
2021/11/15 01:47:02;;;;;;;11.07;7.93;;;10.20;99.90;;;;;;5062281;28;20443;-51
2021/11/15 01:49:28;;;;;;;11.02;8.27;;;9.90;99.90;;;;;;5059747;28;20209;-51
2021/11/15 01:51:53;;;;;;;10.20;8.20;;;10.00;99.90;;;;;;5052454;28;20213;-51
2021/11/15 01:54:19;;;;;;;12.20;8.90;;;9.90;99.90;;;;;;5048050;28;20218;-51
2021/11/15 01:56:47;;;;;;;12.73;8.30;;;9.60;99.90;;;;;;5053170;28;20269;-50
2021/11/15 01:59:12;;;;;;;9.77;7.60;;;9.90;99.90;;;;;;5055045;28;20192;-51
2021/11/15 02:01:38;;;;;;;10.53;7.47;;;10.00;99.90;;;;;;5052382;28;20206;-51
2021/11/15 02:04:03;;;;;;;11.30;7.90;;;9.60;99.90;;;;;;5034822;28;20360;-51
2021/11/15 02:06:29;;;;;;;13.80;7.37;;;9.90;99.90;;;;;;5053134;28;20231;-51
2021/11/15 02:08:55;;;;;;;12.60;8.00;;;9.90;99.90;;;;;;5047751;28;20828;-51
2021/11/15 02:11:21;;;;;;;10.87;7.83;;;9.90;99.90;;;;;;5057880;28;20624;-51
2021/11/15 02:13:47;;;;;;;6.90;5.97;;;9.80;99.90;;;;;;5052465;28;20460;-50
2021/11/15 02:16:13;;;;;;;12.03;8.67;;;9.80;99.90;;;;;;5057557;28;20605;-50
2021/11/15 02:18:39;;;;;;;10.05;6.82;;;9.90;99.90;;;;;;5050232;28;20563;-51
2021/11/15 02:21:07;;;;;;;10.00;7.17;;;9.30;99.90;;;;;;5051659;28;20194;-50
2021/11/15 02:23:36;;;;;;;9.65;7.68;;;9.70;99.90;;;;;;5060474;28;20198;-50
2021/11/15 02:26:03;;;;;;;8.98;6.68;;;9.80;99.90;;;;;;5055375;28;20189;-50
2021/11/15 02:28:32;;;;;;;11.20;7.60;;;9.50;99.90;;;;;;5054537;28;20193;-51
2021/11/15 02:30:59;;;;;;;9.00;7.03;;;9.90;99.90;;;;;;5059356;28;20241;-51
2021/11/15 02:33:28;;;;;;;8.90;7.82;;;9.80;99.90;;;;;;5048346;28;20217;-51
2021/11/15 02:35:54;;;;;;;8.05;6.32;;;9.70;99.90;;;;;;5048882;28;20186;-51
2021/11/15 02:38:20;;;;;;;11.40;7.70;;;9.90;99.90;;;;;;5045916;28;20202;-51
2021/11/15 02:40:46;;;;;;;10.43;6.60;;;9.80;99.90;;;;;;5050291;28;20221;-51
2021/11/15 02:43:11;;;;;;;8.23;6.20;;;9.50;99.90;;;;;;5057130;28;20197;-51
2021/11/15 02:45:37;;;;;;;7.97;6.60;;;9.50;99.90;;;;;;5062501;28;20188;-51
2021/11/15 02:48:03;;;;;;;8.90;6.80;;;9.50;99.90;;;;;;5046401;28;20670;-50
2021/11/15 02:50:30;;;;;;;8.02;6.30;;;9.50;99.90;;;;;;5051459;28;20675;-51
2021/11/15 02:52:59;;;;;;;9.50;7.30;;;9.70;99.90;;;;;;5050313;28;20200;-51
2021/11/15 02:55:27;;;;;;;9.00;7.13;;;9.50;99.90;;;;;;5047759;28;20250;-51
2021/11/15 02:57:53;;;;;;;8.52;5.72;;;9.00;99.90;;;;;;5053198;28;20177;-50
2021/11/15 03:00:29;;;;;;;9.95;6.75;;;9.60;99.90;;;;;;5063265;28;20340;-51
2021/11/15 03:02:56;;;;;;;8.45;6.80;;;9.50;99.90;;;;;;5049265;28;20664;-50
2021/11/15 03:05:26;;;;;;;11.52;6.72;;;9.40;99.90;;;;;;5048084;28;20174;-51
2021/11/15 03:07:53;;;;;;;9.73;7.28;;;9.50;99.90;;;;;;5058544;28;20182;-51
2021/11/15 03:10:19;;;;;;;9.68;7.22;;;9.50;99.90;;;;;;5050330;28;20706;-51
2021/11/15 03:12:45;;;;;;;8.18;6.45;;;9.30;99.90;;;;;;5053174;28;20194;-51
2021/11/15 03:15:25;;;;;;;12.27;7.13;;;9.50;99.90;;;;;;5058374;28;20220;-51
2021/11/15 03:18:03;;;;;;;9.27;7.20;;;9.50;99.90;;;;;;5056214;28;20459;-51
2021/11/15 03:20:32;;;;;;;8.80;7.45;;;9.50;99.90;;;;;;5060115;28;20263;-50
2021/11/15 03:22:58;;;;;;;9.20;7.40;;;9.50;99.90;;;;;;5055354;28;20190;-50
2021/11/15 03:25:26;;;;;;;9.10;7.10;;;9.60;99.90;;;;;;5048141;28;20229;-51
2021/11/15 03:27:52;;;;;;;10.93;7.88;;;9.60;99.90;;;;;;5050315;28;20463;-51
2021/11/15 03:30:17;;;;;;;9.73;6.93;;;9.50;99.90;;;;;;5055759;28;20562;-51
2021/11/15 03:32:45;;;;;;;8.50;7.20;;;9.40;99.90;;;;;;5046066;28;20272;-51
2021/11/15 03:35:12;;;;;;;9.13;6.80;;;9.30;99.90;;;;;;5049262;28;20217;-51
2021/11/15 03:37:39;;;;;;;11.77;8.10;;;9.60;99.90;;;;;;5060746;28;20180;-50
2021/11/15 03:40:08;;;;;;;9.75;7.28;;;9.40;99.90;;;;;;5045965;28;20794;-50
2021/11/15 03:42:35;;;;;;;9.73;8.73;;;9.50;99.90;;;;;;5051558;28;20257;-51
2021/11/15 03:45:01;;;;;;;8.77;7.00;;;9.70;99.90;;;;;;5054170;28;20192;-51
2021/11/15 03:47:26;;;;;;;9.97;7.67;;;9.50;99.90;;;;;;5067830;28;20252;-51
2021/11/15 03:49:52;;;;;;;16.47;9.13;;;9.80;99.90;;;;;;5041229;28;20210;-50
2021/11/15 03:52:18;;;;;;;15.13;10.17;;;9.60;99.90;;;;;;5045215;28;20196;-51
2021/11/15 03:54:43;;;;;;;15.40;10.00;;;9.50;99.90;;;;;;5042868;28;20205;-50
2021/11/15 03:57:09;;;;;;;15.23;10.80;;;9.80;99.90;;;;;;5055125;28;20178;-51
2021/11/15 03:59:34;;;;;;;14.40;11.47;;;9.40;99.90;;;;;;5055000;28;20177;-51
2021/11/15 04:02:00;;;;;;;11.50;10.07;;;9.50;99.90;;;;;;5057164;28;20210;-50
2021/11/15 04:04:31;;;;;;;12.30;9.57;;;9.30;99.90;;;;;;5054840;28;20241;-51
2021/11/15 04:06:57;;;;;;;11.18;7.85;;;9.50;99.90;;;;;;5061715;28;20177;-51
2021/11/15 04:09:23;;;;;;;9.80;7.50;;;9.50;99.90;;;;;;5049189;28;20208;-50
2021/11/15 04:11:48;;;;;;;11.17;8.47;;;9.50;99.90;;;;;;5060576;28;20211;-50
2021/11/15 04:14:15;;;;;;;9.53;7.90;;;9.50;99.90;;;;;;5051275;28;20494;-51
2021/11/15 04:16:45;;;;;;;11.15;7.80;;;9.20;99.90;;;;;;5053919;28;20271;-50
2021/11/15 04:19:15;;;;;;;9.50;8.20;;;9.50;99.90;;;;;;5048793;28;20190;-50
2021/11/15 04:21:41;;;;;;;11.35;7.80;;;9.30;99.90;;;;;;5061346;28;20204;-50
2021/11/15 04:24:07;;;;;;;10.02;7.22;;;9.50;99.90;;;;;;5048118;28;20277;-50
2021/11/15 04:26:34;;;;;;;10.33;7.73;;;9.20;99.90;;;;;;5048580;28;20268;-51
2021/11/15 04:28:59;;;;;;;9.45;6.72;;;9.40;99.90;;;;;;5069957;28;20925;-51
2021/11/15 04:31:26;;;;;;;11.63;8.17;;;9.30;99.90;;;;;;5062340;28;20534;-50
2021/11/15 04:33:53;;;;;;;11.68;8.07;;;9.20;99.90;;;;;;5046035;28;20552;-51
2021/11/15 04:36:19;;;;;;;10.32;7.90;;;9.50;99.90;;;;;;5053695;28;20582;-51
2021/11/15 04:38:45;;;;;;;9.13;7.40;;;9.40;99.90;;;;;;5049912;28;20225;-50
2021/11/15 04:41:10;;;;;;;11.00;8.23;;;9.60;99.90;;;;;;5049512;28;20208;-50
2021/11/15 04:43:36;;;;;;;9.37;7.10;;;9.10;99.90;;;;;;5049882;28;20354;-50
2021/11/15 04:46:02;;;;;;;10.63;7.80;;;9.30;99.90;;;;;;5054422;28;20625;-50
2021/11/15 04:48:27;;;;;;;11.87;8.17;;;9.20;99.90;;;;;;5060062;28;20709;-51
2021/11/15 04:50:54;;;;;;;9.93;7.23;;;9.20;99.90;;;;;;5056074;28;20212;-51
2021/11/15 04:53:19;;;;;;;9.82;7.28;;;9.30;99.90;;;;;;5047280;28;20241;-51
2021/11/15 04:55:45;;;;;;;12.30;7.70;;;9.30;99.90;;;;;;5068045;28;20202;-51
2021/11/15 04:58:11;;;;;;;10.53;7.50;;;9.30;99.90;;;;;;5066292;28;20208;-51
2021/11/15 05:00:37;;;;;;;8.77;6.27;;;9.30;99.90;;;;;;5050318;28;20220;-50
2021/11/15 05:03:03;;;;;;;11.05;7.88;;;9.20;99.90;;;;;;5050306;28;20276;-51
2021/11/15 05:05:32;;;;;;;10.68;7.70;;;9.00;99.90;;;;;;5055141;28;20197;-50
2021/11/15 05:07:58;;;;;;;12.30;7.80;;;9.10;99.90;;;;;;5053893;28;20205;-51
2021/11/15 05:10:27;;;;;;;12.13;8.43;;;9.20;99.90;;;;;;5048608;28;20299;-51
2021/11/15 05:12:53;;;;;;;8.93;7.13;;;9.20;99.90;;;;;;5061617;28;20204;-51
2021/11/15 05:15:19;;;;;;;10.60;7.32;;;9.00;99.90;;;;;;5051474;28;20209;-51
2021/11/15 05:17:47;;;;;;;11.07;7.90;;;9.10;99.90;;;;;;5046002;28;20674;-50
2021/11/15 05:20:14;;;;;;;10.10;7.75;;;9.10;99.90;;;;;;5056342;28;20433;-51
2021/11/15 05:22:40;;;;;;;11.13;8.10;;;9.20;99.90;;;;;;5050168;28;20178;-51
2021/11/15 05:25:07;;;;;;;11.43;8.10;;;9.30;99.90;;;;;;5047614;28;20192;-51
2021/11/15 05:27:34;;;;;;;8.88;7.85;;;9.10;99.90;;;;;;5045561;28;20174;-51
2021/11/15 05:30:00;;;;;;;10.10;8.50;;;9.10;99.90;;;;;;5057548;28;20643;-51
2021/11/15 05:32:25;;;;;;;11.13;8.20;;;9.20;99.90;;;;;;5059000;28;20196;-50
2021/11/15 05:34:51;;;;;;;13.93;9.37;;;9.00;99.90;;;;;;5054931;28;20692;-50
2021/11/15 05:37:17;;;;;;;13.03;8.30;;;9.10;99.90;;;;;;5034153;28;20194;-50
2021/11/15 05:39:44;;;;;;;9.20;7.10;;;9.20;99.90;;;;;;5061058;28;20720;-51
2021/11/15 05:42:10;;;;;;;9.35;6.85;;;9.10;99.90;;;;;;5055048;28;20276;-51
2021/11/15 05:44:36;;;;;;;8.82;7.10;;;9.20;99.90;;;;;;5053702;28;20217;-51
2021/11/15 05:47:02;;;;;;;11.60;7.57;;;9.20;99.90;;;;;;5054289;28;20211;-51
2021/11/15 05:49:28;;;;;;;11.48;8.55;;;9.20;99.90;;;;;;5052286;28;20523;-51
2021/11/15 05:51:53;;;;;;;11.70;7.00;;;9.10;99.90;;;;;;5056090;28;20202;-51
2021/11/15 05:54:19;;;;;;;10.37;8.13;;;8.90;99.90;;;;;;5055682;28;20241;-51
2021/11/15 05:56:46;;;;;;;11.17;8.80;;;9.10;99.90;;;;;;5053322;28;20261;-51
2021/11/15 05:59:12;;;;;;;10.55;7.88;;;9.10;99.90;;;;;;5061774;28;20185;-51
2021/11/15 06:01:39;;;;;;;10.75;7.72;;;9.30;99.90;;;;;;5055460;28;20266;-51
2021/11/15 06:04:05;;;;;;;9.88;7.10;;;9.10;99.90;;;;;;5057843;28;20197;-51
2021/11/15 06:06:31;;;;;;;12.10;8.23;;;9.10;99.90;;;;;;5046785;28;20185;-51
2021/11/15 06:08:56;;;;;;;9.70;7.60;;;9.30;99.90;;;;;;5053296;28;20419;-51
2021/11/15 06:11:22;;;;;;;12.40;9.30;;;9.20;99.90;;;;;;5068250;28;20251;-51
2021/11/15 06:13:47;;;;;;;10.10;8.10;;;9.20;99.90;;;;;;5052071;28;20213;-52
2021/11/15 06:16:13;;;;;;;11.13;8.20;;;9.40;99.90;;;;;;5053714;28;20204;-51
2021/11/15 06:18:40;;;;;;;12.73;8.20;;;9.00;99.90;;;;;;5058040;28;20532;-51
2021/11/15 06:21:06;;;;;;;10.88;8.23;;;9.10;99.90;;;;;;5067411;28;20463;-50
2021/11/15 06:23:32;;;;;;;10.77;8.20;;;9.40;99.90;;;;;;5047701;28;20181;-51
2021/11/15 06:25:58;;;;;;;11.03;8.77;;;9.50;99.90;;;;;;5058562;28;20609;-51
2021/11/15 06:28:23;;;;;;;12.73;9.10;;;9.20;99.90;;;;;;5054211;28;20182;-50
2021/11/15 06:30:49;;;;;;;11.30;9.27;;;9.30;99.90;;;;;;5050502;28;20236;-51
2021/11/15 06:33:14;;;;;;;11.33;6.93;;;9.20;99.90;;;;;;5058367;28;20185;-51
2021/11/15 06:35:40;;;;;;;11.10;8.30;;;8.50;99.90;;;;;;5046120;28;20173;-51
2021/11/15 06:38:06;;;;;;;12.40;9.00;;;9.00;99.90;;;;;;5054162;28;20185;-52
2021/11/15 06:40:31;;;;;;;10.00;7.80;;;9.20;99.90;;;;;;5049034;28;20455;-51
2021/11/15 06:42:57;;;;;;;10.67;8.03;;;9.30;99.90;;;;;;5059932;28;20177;-51
2021/11/15 06:45:23;;;;;;;11.90;8.77;;;9.10;99.90;;;;;;5050304;28;20705;-51
2021/11/15 06:47:49;;;;;;;10.25;8.40;;;9.10;99.90;;;;;;5053935;28;20436;-52
2021/11/15 06:50:18;;;;;;;11.33;8.30;;;9.00;99.90;;;;;;5060506;28;20202;-51
2021/11/15 06:52:45;;;;;;;13.57;10.20;;;9.00;99.90;;;;;;5057199;28;20268;-51
2021/11/15 06:55:13;;;;;;;12.30;7.80;;;8.80;99.90;;;;;;5048007;28;20300;-51
2021/11/15 06:57:40;;;;;;;14.70;10.20;;;9.20;99.90;;;;;;5047288;28;20182;-52
2021/11/15 07:00:09;;;;;;;11.63;9.10;;;9.10;99.90;;;;;;5044878;28;20204;-53
2021/11/15 07:02:34;;;;;;;11.95;8.85;;;9.30;99.90;;;;;;5060829;28;20196;-53
2021/11/15 07:05:00;;;;;;;11.43;8.67;;;9.10;99.90;;;;;;5043785;28;20185;-53
2021/11/15 07:07:26;;;;;;;11.30;8.77;;;9.10;99.90;;;;;;5047697;28;20200;-53
2021/11/15 07:09:51;;;;;;;13.83;8.23;;;9.30;99.90;;;;;;5043488;28;20720;-53
2021/11/15 07:12:17;;;;;;;11.37;8.80;;;9.30;99.90;;;;;;5055745;28;20198;-53
2021/11/15 07:14:43;;;;;;;11.02;9.35;;;9.10;99.90;;;;;;5029449;28;20272;-52
2021/11/15 07:17:09;;;;;;;18.20;9.30;;;9.10;99.90;;;;;;5045995;28;20769;-52
2021/11/15 07:19:35;;;;;;;12.93;9.43;;;9.20;99.90;;;;;;5061769;28;20177;-52
2021/11/15 07:22:00;;;;;;;12.80;8.77;;;9.10;99.90;;;;;;5053903;28;20547;-52
2021/11/15 07:24:26;;;;;;;13.47;10.03;;;9.10;99.90;;;;;;5048896;28;20182;-53
2021/11/15 07:26:51;;;;;;;12.40;8.87;;;9.30;99.90;;;;;;5052851;28;20794;-53
2021/11/15 07:29:17;;;;;;;14.13;10.00;;;9.20;99.90;;;;;;5053259;28;20186;-53
2021/11/15 07:31:44;;;;;;;14.00;9.70;;;9.40;99.90;;;;;;5050504;28;20181;-51
2021/11/15 07:34:10;;;;;;;12.52;9.05;;;9.30;99.90;;;;;;5054849;28;20220;-51
2021/11/15 07:36:36;;;;;;;14.50;9.85;;;9.50;99.90;;;;;;5051577;28;20227;-51
2021/11/15 07:39:03;;;;;;;11.07;8.50;;;9.40;99.90;;;;;;5054067;28;20276;-51
2021/11/15 07:41:29;;;;;;;13.80;9.60;;;9.40;99.90;;;;;;5068059;28;20274;-50
2021/11/15 07:43:55;;;;;;;13.70;9.90;;;9.40;99.90;;;;;;5056836;28;20272;-50
2021/11/15 07:46:21;;;;;;;12.93;9.18;;;9.10;99.90;;;;;;5058646;28;20189;-54
2021/11/15 07:48:46;;;;;;;15.27;9.67;;;9.20;99.90;;;;;;5064936;28;20413;-53
2021/11/15 07:51:12;;;;;;;11.90;9.40;;;9.60;99.90;;;;;;5051185;28;20542;-53
2021/11/15 07:53:38;;;;;;;13.87;10.27;;;9.20;99.90;;;;;;5059319;28;20209;-52
2021/11/15 07:56:06;;;;;;;14.23;10.60;;;9.50;99.90;;;;;;5059876;28;20439;-52
2021/11/15 07:58:32;;;;;;;11.05;9.02;;;9.30;99.90;;;;;;5054732;28;20208;-53
2021/11/15 08:00:58;;;;;;;10.80;8.80;;;8.70;99.90;;;;;;5058668;28;20201;-51
2021/11/15 08:03:23;;;;;;;15.43;8.90;;;9.30;99.90;;;;;;5048116;28;20240;-51
2021/11/15 08:05:49;;;;;;;12.67;9.33;;;9.30;99.90;;;;;;5032943;28;20185;-51
2021/11/15 08:08:15;;;;;;;10.73;8.40;;;9.40;99.90;;;;;;5062122;28;20419;-52
2021/11/15 08:10:41;;;;;;;20.40;9.73;;;9.50;99.90;;;;;;5059724;28;20212;-54
2021/11/15 08:13:06;;;;;;;12.73;7.93;;;9.20;99.90;;;;;;5042062;28;20196;-49
2021/11/15 08:15:32;;;;;;;13.73;7.93;;;9.00;99.90;;;;;;5054917;28;20173;-50
2021/11/15 08:17:59;;;;;;;11.70;9.20;;;9.20;99.90;;;;;;5050130;28;20178;-50
2021/11/15 08:20:27;;;;;;;12.98;9.88;;;9.20;99.90;;;;;;5058455;28;20201;-50
2021/11/15 08:22:58;;;;;;;11.52;8.23;;;9.20;99.90;;;;;;5052432;28;20184;-50
2021/11/15 08:25:45;;;;;;;12.93;8.88;;;9.20;99.90;;;;;;5057835;28;20212;-50
2021/11/15 08:28:11;;;;;;;15.43;11.15;;;9.60;99.90;;;;;;5067726;28;20403;-50
2021/11/15 08:30:38;;;;;;;14.67;9.93;;;9.50;99.90;;;;;;5064447;28;20231;-54
2021/11/15 08:33:04;;;;;;;12.95;10.23;;;9.50;99.90;;;;;;5057774;28;20196;-52
2021/11/15 08:35:30;;;;;;;14.07;9.15;;;9.70;99.90;;;;;;5051520;28;20190;-52
2021/11/15 08:38:18;;;;;;;12.03;9.17;;;9.60;99.90;;;;;;5049021;28;20208;-54
2021/11/15 08:40:49;;;;;;;14.05;9.13;;;9.40;99.90;;;;;;5049164;28;20455;-52
2021/11/15 08:43:17;;;;;;;13.50;9.25;;;9.40;99.90;;;;;;5045113;28;20178;-52
2021/11/15 08:45:42;;;;;;;10.73;8.63;;;9.10;99.90;;;;;;5050610;28;20181;-53
2021/11/15 08:48:08;;;;;;;15.17;9.33;;;9.30;99.90;;;;;;5061535;28;20658;-52
2021/11/15 08:50:34;;;;;;;17.30;9.67;;;9.50;99.90;;;;;;5058060;28;20240;-51
2021/11/15 08:53:01;;;;;;;14.05;9.60;;;9.50;99.90;;;;;;5042682;28;20418;-51
2021/11/15 08:55:27;;;;;;;12.23;9.65;;;9.60;99.90;;;;;;5040712;28;20319;-52
2021/11/15 08:57:55;;;;;;;14.90;10.60;;;9.50;99.90;;;;;;5067558;28;20189;-51
2021/11/15 09:00:21;;;;;;;15.30;10.30;;;9.50;99.90;;;;;;5052850;28;20490;-51
2021/11/15 09:02:47;;;;;;;12.68;9.10;;;9.30;99.90;;;;;;5051093;28;20201;-51
2021/11/15 09:05:13;;;;;;;12.83;9.10;;;9.50;99.90;;;;;;5050326;28;20828;-51
2021/11/15 09:07:40;;;;;;;14.80;9.80;;;9.60;99.90;;;;;;5050191;28;20672;-51
2021/11/15 09:10:08;;;;;;;15.30;10.35;;;9.70;99.90;;;;;;5061500;28;20506;-50
2021/11/15 09:12:35;;;;;;;19.70;9.93;;;9.70;99.90;;;;;;5061239;28;20488;-50
2021/11/15 09:15:02;;;;;;;11.52;9.40;;;9.70;99.90;;;;;;5063648;28;20245;-50
2021/11/15 09:17:28;;;;;;;16.02;9.23;;;9.50;99.90;;;;;;5054681;28;20257;-51
2021/11/15 09:19:54;;;;;;;13.70;10.47;;;9.60;99.90;;;;;;5061844;28;20297;-52
2021/11/15 09:22:20;;;;;;;12.10;9.30;;;10.10;99.90;;;;;;5060444;28;20593;-52
2021/11/15 09:24:47;;;;;;;11.88;9.15;;;9.70;99.90;;;;;;5055592;28;20994;-51
2021/11/15 09:27:14;;;;;;;14.18;9.13;;;9.60;99.90;;;;;;5065606;28;20216;-52
2021/11/15 09:29:45;;;;;;;11.45;8.82;;;9.70;99.90;;;;;;5060526;28;20201;-52
2021/11/15 09:32:11;;;;;;;10.73;9.55;;;9.40;99.90;;;;;;5055155;28;20185;-53
2021/11/15 09:34:41;;;;;;;12.70;9.77;;;9.70;99.90;;;;;;5052895;28;20343;-53
2021/11/15 09:37:12;;;;;;;13.32;9.35;;;9.70;99.90;;;;;;5053021;28;20297;-52
2021/11/15 09:39:46;;;;;;;11.25;9.18;;;9.70;99.90;;;;;;5044438;28;20199;-50
2021/11/15 09:42:13;;;;;;;11.52;9.13;;;9.60;99.90;;;;;;5060499;28;20185;-51
2021/11/15 09:44:39;;;;;;;12.32;8.70;;;9.60;99.90;;;;;;5066332;28;20213;-52
2021/11/15 09:47:06;;;;;;;13.98;9.68;;;9.30;99.90;;;;;;5057381;28;20186;-51
2021/11/15 09:49:33;;;;;;;11.15;8.15;;;9.70;99.90;;;;;;5046269;28;20183;-51
2021/11/15 09:51:59;;;;;;;10.18;8.55;;;9.30;99.90;;;;;;5035920;28;20563;-52
2021/11/15 09:54:26;;;;;;;13.82;8.68;;;9.90;99.90;;;;;;5055057;28;20232;-52
2021/11/15 09:56:52;;;;;;;11.52;8.60;;;9.30;99.90;;;;;;5055511;28;20224;-51
2021/11/15 09:59:19;;;;;;;12.38;9.48;;;9.50;99.90;;;;;;5053674;28;20654;-52
2021/11/15 10:01:48;;;;;;;11.20;9.45;;;9.60;99.90;;;;;;5056169;28;20225;-52
2021/11/15 10:04:17;;;;;;;11.30;9.25;;;9.60;99.90;;;;;;5057464;28;20189;-52
2021/11/15 10:06:44;;;;;;;11.52;8.73;;;9.70;99.90;;;;;;5053889;28;20181;-53
2021/11/15 10:09:11;;;;;;;10.77;8.93;;;9.70;99.90;;;;;;5057176;28;20206;-51
2021/11/15 10:11:44;;;;;;;12.55;9.15;;;9.70;99.90;;;;;;5054933;28;20608;-51
2021/11/15 10:14:10;;;;;;;12.02;9.43;;;9.70;99.90;;;;;;5053832;28;20205;-52
2021/11/15 10:16:36;;;;;;;11.05;8.40;;;9.70;99.90;;;;;;5055102;28;20577;-51
2021/11/15 10:19:04;;;;;;;11.57;9.13;;;9.60;99.90;;;;;;5062464;28;20272;-52
2021/11/15 10:21:49;;;;;;;12.20;9.85;;;9.60;99.90;;;;;;5050007;28;20247;-51
2021/11/15 10:24:32;;;;;;;14.65;10.38;;;9.90;99.90;;;;;;5035284;28;20194;-52
2021/11/15 10:27:05;;;;;;;12.18;9.00;;;9.80;99.90;;;;;;5063386;28;20592;-53
2021/11/15 10:29:35;;;;;;;11.05;8.80;;;9.50;99.90;;;;;;5054404;28;20590;-53
2021/11/15 10:32:10;;;;;;;13.35;9.77;;;9.80;99.90;;;;;;5051797;28;20196;-53
2021/11/15 10:34:49;;;;;;;9.98;8.25;;;9.70;99.90;;;;;;5059115;28;20201;-51
2021/11/15 10:37:20;;;;;;;11.75;8.75;;;9.60;99.90;;;;;;5052429;28;20177;-52
2021/11/15 10:39:53;;;;;;;12.20;9.57;;;9.70;99.90;;;;;;5048592;28;20659;-52
2021/11/15 10:42:25;;;;;;;15.85;13.10;;;9.60;99.90;;;;;;5063563;28;20275;-53
2021/11/15 10:45:01;;;;;;;12.27;9.23;;;9.70;99.90;;;;;;5057824;28;20260;-53
2021/11/15 10:47:35;;;;;;;10.70;8.50;;;9.90;99.90;;;;;;5048944;28;20212;-52
2021/11/15 10:50:05;;;;;;;11.80;9.23;;;9.70;99.90;;;;;;5062253;28;20202;-53
2021/11/15 10:52:34;;;;;;;10.18;8.98;;;9.80;99.90;;;;;;5057324;28;20236;-52
2021/11/15 10:55:04;;;;;;;14.25;10.00;;;9.80;99.90;;;;;;5045378;28;20216;-51
2021/11/15 10:57:39;;;;;;;14.32;10.50;;;9.60;99.90;;;;;;5028806;28;20193;-52
2021/11/15 11:00:04;;;;;;;14.60;11.13;;;9.80;99.90;;;;;;5052017;28;20308;-51
2021/11/15 11:02:31;;;;;;;15.73;10.80;;;9.70;99.90;;;;;;5067030;28;20196;-50
2021/11/15 11:05:18;;;;;;;13.15;10.23;;;9.90;99.90;;;;;;5054324;28;20190;-51
2021/11/15 11:07:52;;;;;;;14.52;10.80;;;9.70;99.90;;;;;;5046899;28;20193;-52
2021/11/15 11:10:21;;;;;;;11.70;10.20;;;10.20;99.90;;;;;;5032594;28;20535;-51
2021/11/15 11:13:02;;;;;;;14.57;11.23;;;9.90;99.90;;;;;;5062145;28;20266;-52
2021/11/15 11:16:04;;;;;;;14.68;12.05;;;9.80;99.90;;;;;;5060574;28;20213;-51
2021/11/15 11:18:36;;;;;;;17.27;12.20;;;9.60;99.90;;;;;;5052701;28;20509;-52
2021/11/15 11:26:28;;;;;;;14.65;10.98;;;9.80;99.90;;;;;;5062504;28;20276;-51
2021/11/15 11:28:58;;;;;;;16.48;11.55;;;9.80;99.90;;;;;;5060064;28;20189;-51
2021/11/15 11:31:28;;;;;;;13.85;11.35;;;9.70;99.90;;;;;;5049404;28;20202;-51
2021/11/15 11:33:55;;;;;;;13.45;11.15;;;10.00;99.90;;;;;;5047333;28;20299;-51
2021/11/15 11:36:21;;;;;;;15.48;11.45;;;10.00;99.90;;;;;;5062546;28;20214;-51
2021/11/15 11:38:47;;;;;;;19.27;11.67;;;10.10;99.90;;;;;;5041971;28;20213;-51
2021/11/15 11:41:15;;;;;;;14.55;11.20;;;10.10;99.90;;;;;;5053849;28;20982;-50
2021/11/15 11:43:41;;;;;;;16.08;12.00;;;10.00;99.90;;;;;;5063073;28;20200;-51
2021/11/15 11:46:08;;;;;;;14.02;10.90;;;10.10;99.90;;;;;;5068770;28;20197;-51
2021/11/15 11:48:34;;;;;;;13.52;11.77;;;10.10;99.90;;;;;;5054645;28;20185;-51
2021/11/15 11:51:00;;;;;;;16.92;11.73;;;10.20;99.90;;;;;;5057532;28;20213;-51
2021/11/15 11:53:29;;;;;;;14.13;11.65;;;10.00;99.90;;;;;;5062015;28;20190;-51
2021/11/15 11:55:56;;;;;;;14.30;11.77;;;10.10;99.90;;;;;;5043821;28;20227;-51
2021/11/15 11:58:28;;;;;;;15.05;11.95;;;10.30;99.90;;;;;;5053720;28;20182;-52
2021/11/15 12:00:57;;;;;;;15.88;11.80;;;10.10;99.90;;;;;;5060229;28;20212;-52
2021/11/15 12:03:27;;;;;;;14.48;11.55;;;10.10;99.90;;;;;;5057752;28;20205;-51
2021/11/15 12:05:54;;;;;;;17.60;11.40;;;9.80;99.90;;;;;;5054921;28;20582;-52
2021/11/15 12:08:52;;;;;;;15.10;12.13;;;9.90;99.90;;;;;;5041348;28;20202;-51
2021/11/15 12:12:01;;;;;;;16.17;10.88;;;9.80;99.90;;;;;;5043236;28;20244;-52
2021/11/15 12:14:39;;;;;;;15.52;12.10;;;9.80;99.90;;;;;;5043268;28;20240;-51
2021/11/15 12:17:21;;;;;;;15.38;12.52;;;9.70;99.90;;;;;;5056478;28;20267;-51
2021/11/15 12:19:53;;;;;;;17.40;11.43;;;9.50;99.90;;;;;;5056713;28;20198;-52
2021/11/15 12:22:21;;;;;;;13.80;11.00;;;9.60;99.90;;;;;;5035178;28;20257;-51
2021/11/15 12:25:06;;;;;;;15.98;11.82;;;9.60;99.90;;;;;;5049033;28;20189;-51
2021/11/15 12:27:47;;;;;;;12.73;10.23;;;9.60;99.90;;;;;;5058323;28;20191;-51
2021/11/15 12:30:16;;;;;;;15.00;11.77;;;9.80;99.90;;;;;;5045065;28;20205;-51
2021/11/15 12:33:17;;;;;;;15.00;11.60;;;10.00;99.90;;;;;;5053942;28;20280;-51
2021/11/15 12:36:08;;;;;;;16.10;11.55;;;9.80;99.90;;;;;;5055149;28;20186;-51
2021/11/15 12:38:50;;;;;;;15.88;12.38;;;9.70;99.90;;;;;;5057333;28;20658;-52
2021/11/15 12:41:16;;;;;;;15.02;11.80;;;9.70;99.90;;;;;;5062858;28;20225;-52
2021/11/15 12:44:04;;;;;;;15.07;12.10;;;9.80;99.90;;;;;;5041802;28;20720;-50
2021/11/15 12:46:40;;;;;;;19.35;10.85;;;9.90;99.90;;;;;;5061623;28;20188;-50
2021/11/15 12:49:36;;;;;;;16.30;11.80;;;10.10;99.90;;;;;;5051006;28;20188;-52
2021/11/15 12:52:11;;;;;;;17.27;12.35;;;9.90;99.90;;;;;;5052003;28;20190;-53
2021/11/15 12:54:47;;;;;;;19.40;13.55;;;9.90;99.90;;;;;;5055413;28;20291;-52